CheckWX is a tool to help pilots better visualize weather data.  It is not intended as a substitute for an official pre-flight weather briefing.

20:25:36 UTC

GEML METAR
Melilla Airport
Melilla, Spain
Current

26 mins ago

GEML 202000Z AUTO 15003KT 110V180 CAVOK 16/10 Q1012
Observed
Apr-20 @ 20:00 UTC
Wind
  • 150° at 3 KTS
Visibility
10,000+ meters
Flight Rules
VFR
Cloud Levels
  • Clear skies
Temperature
16°C / 61°F
Dewpoint
10°C / 50°F
Humidity
68%
Altimeter
29.88" Hg
Pressure
1011.92 hPa
Previous

56 mins ago

GEML 201930Z 11005KT 080V160 9999 FEW013 SCT020 16/10 Q1012
Observed
Apr-20 @ 19:30 UTC
Wind
  • 110° at 5 KTS
Visibility
10,000+ meters
Flight Rules
VFR
Cloud Levels
  • Few at 1,300' AGL
  • Scattered at 2,000' AGL
Temperature
16°C / 61°F
Dewpoint
10°C / 50°F
Humidity
68%
Altimeter
29.88" Hg
Pressure
1011.92 hPa
Previous

1 hour ago

GEML 201900Z 11008KT 080V150 9999 FEW013 SCT020 16/11 Q1012
Observed
Apr-20 @ 19:00 UTC
Wind
  • 110° at 8 KTS
Visibility
10,000+ meters
Flight Rules
VFR
Cloud Levels
  • Few at 1,300' AGL
  • Scattered at 2,000' AGL
Temperature
16°C / 61°F
Dewpoint
11°C / 52°F
Humidity
72%
Altimeter
29.88" Hg
Pressure
1011.92 hPa